Time;durP1;ratioP1;P1;durP2;ratioP2;P2;SDS_P1;SDS_P2;PMS_P1;PMS_P2;Temp;Humidity;BMP_temperature;BMP_pressure;BME280_temperature;BME280_humidity;BME280_pressure;Samples;Min_cycle;Max_cycle;Signal;HPM_P1;HPM_P2
2022/09/01 00:00:53;;;;;;;1.48;0.20;;;;;;;13.18;74.12;102279.00;2080356;28;25897;-67
2022/09/01 00:01:55;;;;;;;0.98;0.20;;;;;;;13.12;73.96;102283.59;2080674;28;20985;-68
2022/09/01 00:02:57;;;;;;;1.60;0.20;;;;;;;13.15;74.35;102289.81;2080426;28;25079;-68
2022/09/01 00:04:02;;;;;;;2.72;0.30;;;;;;;13.13;74.40;102283.53;2082408;28;20216;-67
2022/09/01 00:05:06;;;;;;;0.60;0.20;;;;;;;13.11;74.23;102277.28;2072640;28;31618;-68
2022/09/01 00:06:10;;;;;;;3.60;0.20;;;;;;;13.11;74.44;102276.41;2080772;28;20045;-68
2022/09/01 00:07:13;;;;;;;1.70;0.28;;;;;;;13.09;74.79;102283.63;2071438;28;20839;-68
2022/09/01 00:08:15;;;;;;;0.70;0.20;;;;;;;13.09;74.50;102284.50;2072061;28;29201;-67
2022/09/01 00:09:22;;;;;;;2.25;0.30;;;;;;;13.12;74.36;102280.91;2080466;28;20034;-68
2022/09/01 00:10:24;;;;;;;1.35;0.20;;;;;;;13.12;74.74;102279.09;2079894;28;32394;-68
2022/09/01 00:11:28;;;;;;;1.23;0.30;;;;;;;13.10;73.98;102280.91;2080103;28;29121;-68
2022/09/01 00:12:30;;;;;;;1.27;0.20;;;;;;;13.12;74.95;102281.78;2080243;28;27226;-67
2022/09/01 00:13:32;;;;;;;2.25;0.30;;;;;;;13.12;74.15;102278.22;2079543;28;36055;-67
2022/09/01 00:14:39;;;;;;;1.25;0.20;;;;;;;13.10;74.31;102274.63;2079538;28;33988;-68
2022/09/01 00:15:42;;;;;;;0.52;0.20;;;;;;;13.10;74.53;102280.91;2064137;28;29491;-68
2022/09/01 00:16:46;;;;;;;0.57;0.20;;;;;;;13.08;74.22;102276.44;2064292;28;30888;-67
2022/09/01 00:17:48;;;;;;;1.65;0.20;;;;;;;13.07;74.20;102285.44;2079521;28;25059;-67
2022/09/01 00:18:53;;;;;;;2.95;0.30;;;;;;;13.09;75.13;102279.13;2079887;28;30792;-67
2022/09/01 00:19:55;;;;;;;1.52;0.30;;;;;;;13.06;74.84;102278.25;2079667;28;23680;-67
2022/09/01 00:20:58;;;;;;;1.00;0.20;;;;;;;13.08;74.56;102281.81;2080074;28;30739;-68
2022/09/01 00:22:01;;;;;;;1.10;0.20;;;;;;;13.05;74.60;102268.44;2079560;28;24142;-68
2022/09/01 00:23:03;;;;;;;1.10;0.20;;;;;;;13.08;74.78;102271.06;2071690;28;32251;-67
2022/09/01 00:24:07;;;;;;;1.77;0.20;;;;;;;13.04;74.27;102278.28;2079647;28;31560;-67
2022/09/01 00:25:09;;;;;;;1.75;0.20;;;;;;;13.03;75.30;102275.59;2079863;28;32743;-68
2022/09/01 00:26:11;;;;;;;1.35;0.30;;;;;;;12.99;75.02;102272.97;2080497;28;20067;-68
2022/09/01 00:27:13;;;;;;;1.33;0.30;;;;;;;12.99;74.71;102280.13;2079488;28;31963;-67
2022/09/01 00:28:15;;;;;;;1.95;0.30;;;;;;;13.00;74.58;102271.16;2079046;28;28095;-68
2022/09/01 00:29:20;;;;;;;0.52;0.20;;;;;;;12.98;75.07;102273.88;2080777;28;20089;-67
2022/09/01 00:30:23;;;;;;;1.02;0.20;;;;;;;12.96;75.44;102272.13;2079632;28;20030;-68
2022/09/01 00:31:26;;;;;;;0.50;0.20;;;;;;;13.04;74.57;102277.41;2079662;28;20050;-68
2022/09/01 00:32:30;;;;;;;1.48;0.20;;;;;;;12.98;74.97;102272.97;2079659;28;20042;-68
2022/09/01 00:33:34;;;;;;;1.63;0.30;;;;;;;12.99;74.68;102274.75;2080038;28;20932;-67
2022/09/01 00:34:36;;;;;;;0.73;0.20;;;;;;;12.96;75.15;102269.44;2079373;28;34883;-67
2022/09/01 00:35:40;;;;;;;0.93;0.20;;;;;;;12.92;75.60;102270.34;2071665;28;20177;-67
2022/09/01 00:36:42;;;;;;;0.82;0.20;;;;;;;12.89;75.33;102273.09;2079664;28;20042;-68
2022/09/01 00:37:47;;;;;;;0.50;0.20;;;;;;;12.91;75.01;102274.84;2080342;28;20953;-68
2022/09/01 00:38:51;;;;;;;0.50;0.20;;;;;;;12.90;75.30;102273.09;2079634;28;27433;-67
2022/09/01 00:39:53;;;;;;;2.47;0.30;;;;;;;12.90;74.75;102272.16;2080021;28;20045;-66
2022/09/01 00:40:54;;;;;;;1.65;0.20;;;;;;;12.90;75.17;102272.16;2072265;28;21685;-67
2022/09/01 00:41:58;;;;;;;1.60;0.20;;;;;;;12.92;75.42;102275.72;2079456;28;20131;-65
2022/09/01 00:43:01;;;;;;;1.67;0.20;;;;;;;12.87;75.34;102270.41;2079483;28;20392;-68
2022/09/01 00:44:07;;;;;;;3.03;0.30;;;;;;;12.85;75.18;102269.56;2079297;28;26603;-67
2022/09/01 00:45:10;;;;;;;4.32;0.22;;;;;;;12.90;75.71;102278.47;2071276;28;22605;-68
2022/09/01 00:46:18;;;;;;;0.80;0.35;;;;;;;12.89;74.87;102276.66;2064512;28;20038;-67
2022/09/01 00:47:21;;;;;;;1.52;0.30;;;;;;;12.87;75.58;102281.16;2079649;28;26273;-70
2022/09/01 00:48:23;;;;;;;3.72;0.20;;;;;;;12.86;75.12;102282.06;2080204;28;20120;-67
2022/09/01 00:49:41;;;;;;;1.02;0.20;;;;;;;12.84;75.12;102278.50;2080476;28;20139;-68
2022/09/01 00:50:43;;;;;;;1.02;0.20;;;;;;;12.87;75.38;102282.97;2078932;28;26071;-68
2022/09/01 00:51:58;;;;;;;0.57;0.20;;;;;;;12.91;75.35;102285.59;2079526;28;20123;-68
2022/09/01 00:53:01;;;;;;;1.88;0.20;;;;;;;12.92;75.12;102275.72;2079945;28;20081;-69
2022/09/01 00:54:07;;;;;;;0.70;0.20;;;;;;;12.89;75.22;102273.09;2079962;28;20642;-67
2022/09/01 00:55:16;;;;;;;2.80;0.30;;;;;;;12.87;75.57;102274.91;2079791;28;20909;-68
2022/09/01 00:56:18;;;;;;;1.00;0.30;;;;;;;12.83;75.51;102271.38;2081520;28;23007;-67
2022/09/01 00:57:20;;;;;;;0.98;0.30;;;;;;;12.84;75.45;102273.13;2079813;28;20038;-67
2022/09/01 00:58:22;;;;;;;0.82;0.20;;;;;;;12.82;75.55;102274.06;2070836;28;28175;-68
2022/09/01 00:59:26;;;;;;;0.60;0.20;;;;;;;12.84;76.01;102266.88;2079150;28;20046;-69
2022/09/01 01:00:32;;;;;;;0.63;0.10;;;;;;;12.84;75.73;102278.50;2079480;28;20068;-68
2022/09/01 01:01:36;;;;;;;1.38;0.20;;;;;;;12.86;75.46;102271.31;2072428;28;20236;-67
2022/09/01 01:02:40;;;;;;;2.35;0.30;;;;;;;12.87;75.48;102269.53;2072193;28;20570;-68
2022/09/01 01:03:43;;;;;;;1.15;0.25;;;;;;;12.85;75.41;102269.56;2071529;28;30500;-67
2022/09/01 01:04:45;;;;;;;0.57;0.20;;;;;;;12.83;75.51;102267.75;2080526;28;20081;-67
2022/09/01 01:05:54;;;;;;;1.10;0.20;;;;;;;12.85;75.89;102269.56;2071373;28;20990;-67
2022/09/01 01:07:01;;;;;;;0.77;0.20;;;;;;;12.84;75.62;102264.19;2072457;28;27325;-67
2022/09/01 01:08:06;;;;;;;1.67;0.20;;;;;;;12.86;75.72;102265.06;2072869;28;20975;-68
2022/09/01 01:09:08;;;;;;;1.45;0.30;;;;;;;12.84;75.23;102269.56;2080350;28;29485;-67
2022/09/01 01:10:13;;;;;;;1.63;0.28;;;;;;;12.84;75.20;102265.06;2087047;28;20713;-68
2022/09/01 01:11:17;;;;;;;0.60;0.20;;;;;;;12.89;75.47;102270.41;2087906;28;20037;-67
2022/09/01 01:12:20;;;;;;;1.70;0.30;;;;;;;12.90;75.60;102267.69;2078931;28;24239;-68
2022/09/01 01:13:24;;;;;;;1.08;0.20;;;;;;;12.91;75.38;102269.47;2062356;28;20047;-68
2022/09/01 01:14:31;;;;;;;1.27;0.25;;;;;;;12.93;75.08;102269.44;2064077;28;20814;-67
2022/09/01 01:15:32;;;;;;;0.90;0.22;;;;;;;12.91;75.20;102272.16;2072171;28;21056;-67
2022/09/01 01:16:38;;;;;;;1.67;0.20;;;;;;;12.92;75.33;102270.34;2079862;28;20128;-67
2022/09/01 01:17:41;;;;;;;1.13;0.30;;;;;;;12.99;74.98;102272.06;2087874;28;20049;-67
2022/09/01 01:18:43;;;;;;;2.45;0.30;;;;;;;12.96;75.12;102267.63;2086779;28;20038;-67
2022/09/01 01:23:09;;;;;;;0.73;0.20;;;;;;;13.01;74.65;102272.03;2075250;28;21184;-68
2022/09/01 01:24:31;;;;;;;0.73;0.20;;;;;;;13.03;74.41;102267.53;2083697;28;20080;-67
2022/09/01 01:25:47;;;;;;;1.25;0.20;;;;;;;13.02;75.06;102271.16;2079534;28;20046;-68
2022/09/01 01:26:56;;;;;;;1.67;0.30;;;;;;;13.05;75.01;102272.00;2082302;28;20033;-68
2022/09/01 01:28:15;;;;;;;1.13;0.20;;;;;;;13.11;74.85;102265.66;2086295;28;20080;-68
2022/09/01 01:29:18;;;;;;;1.45;0.20;;;;;;;13.13;73.89;102270.09;2073910;28;20119;-68
2022/09/01 01:30:22;;;;;;;1.55;0.20;;;;;;;13.13;74.13;102259.34;2079431;28;20752;-68
2022/09/01 01:31:24;;;;;;;0.50;0.20;;;;;;;13.13;73.94;102271.91;2080087;28;20042;-68
2022/09/01 01:32:28;;;;;;;1.98;0.43;;;;;;;13.14;73.80;102260.25;2079425;28;21029;-68
2022/09/01 01:33:38;;;;;;;1.88;0.30;;;;;;;13.16;73.94;102263.81;2071279;28;20186;-68
2022/09/01 01:34:42;;;;;;;0.55;0.20;;;;;;;13.17;73.75;102262.88;2078918;28;20042;-68
2022/09/01 01:35:45;;;;;;;0.93;0.20;;;;;;;13.18;73.97;102265.56;2079235;28;20168;-68
2022/09/01 01:36:49;;;;;;;0.45;0.15;;;;;;;13.18;73.67;102267.34;2079533;28;20046;-68
2022/09/01 01:37:53;;;;;;;1.83;0.20;;;;;;;13.18;74.15;102270.06;2087707;28;20081;-68
2022/09/01 01:39:00;;;;;;;2.45;0.30;;;;;;;13.22;73.54;102270.91;2087043;28;20033;-65
2022/09/01 01:40:04;;;;;;;1.50;0.30;;;;;;;13.23;73.79;102265.50;2071204;28;20888;-68
2022/09/01 01:41:06;;;;;;;1.20;0.20;;;;;;;13.24;73.71;102272.66;2064240;28;20058;-68
2022/09/01 01:42:09;;;;;;;1.98;0.20;;;;;;;13.25;73.49;102266.38;2071318;28;20068;-68
2022/09/01 01:43:14;;;;;;;0.73;0.20;;;;;;;13.27;73.58;102266.34;2071491;28;20038;-68
2022/09/01 01:44:21;;;;;;;0.90;0.20;;;;;;;13.26;73.75;102270.84;2079224;28;20085;-68
2022/09/01 01:45:24;;;;;;;1.08;0.20;;;;;;;13.27;73.42;102271.75;2063612;28;20888;-68
2022/09/01 01:46:26;;;;;;;0.80;0.30;;;;;;;13.31;73.36;102273.50;2072494;28;20149;-68
2022/09/01 01:47:28;;;;;;;1.30;0.30;;;;;;;13.31;73.71;102270.81;2079334;28;20045;-68
2022/09/01 01:48:33;;;;;;;4.20;0.30;;;;;;;13.32;73.46;102265.41;2079939;28;20154;-68
2022/09/01 01:49:35;;;;;;;0.98;0.28;;;;;;;13.34;73.58;102266.28;2079497;28;21743;-68
2022/09/01 01:50:37;;;;;;;3.28;0.20;;;;;;;13.40;73.51;102272.50;2072731;28;20116;-68
2022/09/01 01:51:39;;;;;;;1.40;0.30;;;;;;;13.38;73.68;102269.81;2073155;28;20046;-68
2022/09/01 01:52:41;;;;;;;0.65;0.30;;;;;;;13.40;73.17;102273.38;2080527;28;20053;-68
2022/09/01 01:53:51;;;;;;;2.25;0.20;;;;;;;13.39;73.51;102271.63;2073056;28;20049;-68
2022/09/01 01:54:53;;;;;;;0.82;0.30;;;;;;;13.41;73.51;102271.59;2081521;28;20049;-68
2022/09/01 01:55:57;;;;;;;1.10;0.30;;;;;;;13.42;73.40;102276.06;2080777;28;20042;-67
2022/09/01 01:57:03;;;;;;;1.50;0.20;;;;;;;13.43;73.75;102276.03;2081539;28;20167;-68
2022/09/01 01:58:06;;;;;;;1.05;0.35;;;;;;;13.43;73.47;102264.41;2088814;28;20049;-68
2022/09/01 01:59:09;;;;;;;2.15;0.20;;;;;;;13.44;73.09;102271.53;2088940;28;20181;-68
2022/09/01 02:00:18;;;;;;;1.55;0.20;;;;;;;13.44;73.45;102276.91;2080054;28;20053;-68
2022/09/01 02:01:28;;;;;;;1.80;0.30;;;;;;;13.45;73.59;102274.22;2057118;28;20047;-68
2022/09/01 02:02:36;;;;;;;0.98;0.22;;;;;;;13.44;73.68;102269.75;2067208;28;20047;-68
2022/09/01 02:03:40;;;;;;;0.77;0.20;;;;;;;13.44;73.58;102266.16;2072206;28;20831;-66
2022/09/01 02:04:42;;;;;;;1.52;0.30;;;;;;;13.42;73.39;102267.97;2068807;28;20148;-68
2022/09/01 02:05:48;;;;;;;0.60;0.20;;;;;;;13.44;74.12;102279.59;2080662;28;20088;-67
2022/09/01 02:06:56;;;;;;;1.67;0.20;;;;;;;13.43;73.55;102278.72;2072256;28;20788;-68
2022/09/01 02:08:05;;;;;;;0.52;0.25;;;;;;;13.43;73.55;102277.84;2072731;28;20958;-68
2022/09/01 02:09:08;;;;;;;0.90;0.30;;;;;;;13.42;73.83;102270.66;2072222;28;20924;-68
2022/09/01 02:10:10;;;;;;;0.68;0.28;;;;;;;13.42;74.13;102276.94;2072750;28;20557;-68
2022/09/01 02:11:16;;;;;;;1.25;0.35;;;;;;;13.42;74.23;102276.94;2080870;28;20054;-69
2022/09/01 02:12:20;;;;;;;2.08;0.30;;;;;;;13.44;74.02;102276.91;2071922;28;20200;-68
2022/09/01 02:13:27;;;;;;;2.75;0.30;;;;;;;13.41;74.08;102275.19;2064437;28;20966;-68
2022/09/01 02:14:29;;;;;;;1.60;0.47;;;;;;;13.41;74.12;102275.19;2065528;28;20039;-68
2022/09/01 02:15:36;;;;;;;0.88;0.30;;;;;;;13.41;73.97;102274.28;2073177;28;22104;-68
2022/09/01 02:16:42;;;;;;;2.88;0.40;;;;;;;13.40;74.59;102273.38;2072356;28;20084;-68
2022/09/01 02:17:45;;;;;;;0.75;0.25;;;;;;;13.40;74.21;102276.06;2073245;28;20895;-68
2022/09/01 02:18:50;;;;;;;0.98;0.20;;;;;;;13.39;74.07;102281.47;2072144;28;20078;-68
2022/09/01 02:19:57;;;;;;;1.27;0.20;;;;;;;13.38;74.70;102277.00;2072216;28;20073;-68
2022/09/01 02:20:59;;;;;;;1.60;0.20;;;;;;;13.36;74.33;102275.22;2076921;28;20034;-69
2022/09/01 02:22:01;;;;;;;0.90;0.40;;;;;;;13.37;74.65;102273.44;2072141;28;20088;-68
2022/09/01 02:23:10;;;;;;;1.15;0.30;;;;;;;13.39;74.55;102281.47;2072175;28;20093;-68
2022/09/01 02:24:12;;;;;;;2.05;0.28;;;;;;;13.37;75.02;102278.81;2072149;28;20150;-68
2022/09/01 02:25:15;;;;;;;1.52;0.38;;;;;;;13.37;74.97;102278.81;2073019;28;20039;-68
2022/09/01 02:26:17;;;;;;;3.47;0.35;;;;;;;13.37;74.65;102276.13;2072264;28;20046;-68
2022/09/01 02:27:24;;;;;;;1.17;0.30;;;;;;;13.36;75.07;102275.22;2065417;28;20047;-68
2022/09/01 02:28:30;;;;;;;1.05;0.20;;;;;;;13.36;74.87;102271.66;2080199;28;20696;-68
2022/09/01 02:29:33;;;;;;;1.23;0.30;;;;;;;13.35;75.30;102273.47;2064642;28;20887;-68
2022/09/01 02:30:36;;;;;;;0.50;0.25;;;;;;;13.35;75.31;102280.63;2073356;28;20034;-68
2022/09/01 02:31:38;;;;;;;1.05;0.30;;;;;;;13.34;75.59;102277.03;2076076;28;20050;-68
2022/09/01 02:32:40;;;;;;;1.10;0.30;;;;;;;13.32;75.34;102270.81;2079442;28;20050;-68
2022/09/01 02:33:44;;;;;;;1.80;0.30;;;;;;;13.32;75.25;102273.50;2071722;28;20170;-68
2022/09/01 02:34:52;;;;;;;1.50;0.30;;;;;;;13.32;75.34;102276.19;2072469;28;20148;-68
2022/09/01 02:35:59;;;;;;;2.80;0.30;;;;;;;13.31;75.82;102273.50;2079213;28;20793;-68
2022/09/01 02:37:00;;;;;;;1.85;0.30;;;;;;;13.30;75.34;102272.59;2073598;28;21004;-68
2022/09/01 02:38:05;;;;;;;1.45;0.40;;;;;;;13.28;75.77;102274.41;2080509;28;20221;-68
2022/09/01 02:39:07;;;;;;;0.98;0.30;;;;;;;13.27;75.99;102271.75;2080169;28;20034;-68
2022/09/01 02:40:11;;;;;;;0.95;0.32;;;;;;;13.26;75.73;102273.56;2080194;28;20050;-68
2022/09/01 02:41:19;;;;;;;1.67;0.30;;;;;;;13.26;76.08;102276.25;2080169;28;20931;-68
2022/09/01 02:42:24;;;;;;;0.60;0.30;;;;;;;13.24;75.79;102261.88;2080241;28;20187;-68
2022/09/01 02:43:30;;;;;;;0.68;0.20;;;;;;;13.23;75.85;102268.19;2073023;28;20906;-68
2022/09/01 02:44:32;;;;;;;0.93;0.30;;;;;;;13.23;76.19;102267.31;2081314;28;20145;-68
2022/09/01 02:45:38;;;;;;;1.50;0.40;;;;;;;13.22;76.21;102268.22;2081057;28;20107;-68
2022/09/01 02:46:43;;;;;;;1.25;0.30;;;;;;;13.21;76.30;102272.72;2079868;28;20038;-68
2022/09/01 02:47:47;;;;;;;1.90;0.50;;;;;;;13.22;76.46;102263.72;2072917;28;20046;-68
2022/09/01 02:48:51;;;;;;;0.98;0.20;;;;;;;13.20;76.79;102270.91;2072991;28;20050;-68
2022/09/01 02:49:53;;;;;;;1.67;0.30;;;;;;;13.18;76.25;102268.25;2080507;28;20026;-68
2022/09/01 02:50:58;;;;;;;1.52;0.30;;;;;;;13.17;76.56;102265.56;2081092;28;20049;-67
2022/09/01 02:52:01;;;;;;;0.93;0.30;;;;;;;13.15;76.75;102265.63;2081075;28;20042;-68
2022/09/01 02:53:09;;;;;;;2.08;0.30;;;;;;;13.14;77.34;102266.50;2080028;28;20054;-68
2022/09/01 02:54:16;;;;;;;0.57;0.30;;;;;;;13.13;77.52;102263.84;2073021;28;20046;-68
2022/09/01 02:55:22;;;;;;;2.42;0.30;;;;;;;13.13;77.12;102263.84;2080395;28;20111;-68
2022/09/01 02:56:26;;;;;;;0.50;0.30;;;;;;;13.13;77.26;102258.47;2080121;28;21030;-68
2022/09/01 02:57:28;;;;;;;2.22;0.45;;;;;;;13.10;77.63;102255.78;2080507;28;20038;-68
2022/09/01 02:58:39;;;;;;;1.70;0.40;;;;;;;13.08;76.92;102255.84;2088756;28;20037;-68
2022/09/01 02:59:42;;;;;;;1.20;0.40;;;;;;;13.07;77.58;102264.81;2080173;28;20046;-68
2022/09/01 03:00:51;;;;;;;0.95;0.28;;;;;;;13.06;78.16;102251.38;2072050;28;23192;-68
2022/09/01 03:01:55;;;;;;;0.80;0.30;;;;;;;13.04;77.39;102258.56;2072601;28;20049;-68
2022/09/01 03:03:00;;;;;;;1.63;0.40;;;;;;;13.04;78.19;102262.16;2072094;28;20181;-68
2022/09/01 03:04:06;;;;;;;1.55;0.30;;;;;;;13.03;77.62;102251.41;2072446;28;20027;-68
2022/09/01 03:05:08;;;;;;;1.75;0.40;;;;;;;13.01;77.82;102256.81;2063390;28;20761;-68
2022/09/01 03:06:11;;;;;;;3.15;0.30;;;;;;;12.99;77.96;102254.16;2064994;28;20042;-68
2022/09/01 03:07:13;;;;;;;1.10;0.30;;;;;;;12.99;78.43;102258.63;2063821;28;20116;-68
2022/09/01 03:08:15;;;;;;;1.00;0.30;;;;;;;12.97;78.27;102255.97;2064667;28;20785;-68
2022/09/01 03:09:17;;;;;;;1.00;0.45;;;;;;;12.97;78.45;102253.28;2063692;28;20220;-68
2022/09/01 03:10:20;;;;;;;2.13;0.30;;;;;;;12.95;78.77;102251.50;2064302;28;21011;-68
2022/09/01 03:11:23;;;;;;;0.93;0.38;;;;;;;12.94;78.54;102253.31;2063629;28;20047;-68
2022/09/01 03:12:27;;;;;;;1.30;0.40;;;;;;;12.94;79.12;102255.13;2064633;28;20101;-68
2022/09/01 03:13:30;;;;;;;2.00;0.30;;;;;;;12.92;79.16;102252.44;2079955;28;20204;-68
2022/09/01 03:14:32;;;;;;;2.58;0.30;;;;;;;12.89;79.15;102249.78;2064019;28;20912;-68
2022/09/01 03:15:35;;;;;;;1.92;0.40;;;;;;;12.90;79.05;102248.88;2063832;28;20920;-68
2022/09/01 03:16:38;;;;;;;2.50;0.40;;;;;;;12.90;79.08;102254.25;2063969;28;20042;-68
2022/09/01 03:17:40;;;;;;;0.90;0.30;;;;;;;12.88;78.81;102249.78;2064273;28;20125;-68
2022/09/01 03:18:42;;;;;;;1.35;0.45;;;;;;;12.89;79.12;102254.28;2071913;28;20085;-68
2022/09/01 03:19:45;;;;;;;1.23;0.50;;;;;;;12.86;78.76;102252.50;2063974;28;20031;-68
2022/09/01 03:20:49;;;;;;;0.93;0.50;;;;;;;12.86;79.79;102251.63;2076985;28;20155;-68
2022/09/01 03:21:54;;;;;;;0.88;0.40;;;;;;;12.84;80.07;102254.31;2071815;28;20038;-67
2022/09/01 03:23:00;;;;;;;1.10;0.35;;;;;;;12.83;79.93;102255.25;2064895;28;20904;-68
2022/09/01 03:24:03;;;;;;;0.93;0.43;;;;;;;12.83;79.24;102260.63;2063865;28;20818;-68
2022/09/01 03:25:07;;;;;;;0.98;0.40;;;;;;;12.82;80.49;102253.44;2071961;28;20042;-67
2022/09/01 03:26:10;;;;;;;1.60;0.55;;;;;;;12.82;80.18;102250.75;2071729;28;20046;-67
2022/09/01 03:27:12;;;;;;;1.73;0.43;;;;;;;12.83;80.03;102259.69;2072181;28;20038;-69
2022/09/01 03:28:15;;;;;;;0.85;0.38;;;;;;;12.81;80.60;102257.03;2080292;28;20085;-69
2022/09/01 03:29:18;;;;;;;1.73;0.40;;;;;;;12.87;79.41;102254.28;2080005;28;20048;-67
2022/09/01 03:30:20;;;;;;;1.00;0.30;;;;;;;12.82;79.64;102253.44;2071947;28;20047;-69
2022/09/01 03:31:28;;;;;;;1.05;0.40;;;;;;;12.84;80.01;102256.13;2072110;28;20031;-67
2022/09/01 03:32:33;;;;;;;0.85;0.40;;;;;;;12.81;79.88;102257.03;2056896;28;20122;-68
2022/09/01 03:33:35;;;;;;;1.35;0.40;;;;;;;12.79;80.20;102259.75;2064655;28;20877;-67
2022/09/01 03:34:39;;;;;;;1.50;0.50;;;;;;;12.79;79.88;102259.75;2079500;28;20164;-68
2022/09/01 03:35:41;;;;;;;1.58;0.38;;;;;;;12.80;80.33;102260.63;2080231;28;20096;-67
2022/09/01 03:36:49;;;;;;;2.85;0.50;;;;;;;12.78;79.79;102254.41;2071722;28;20907;-68
2022/09/01 03:38:02;;;;;;;2.88;0.40;;;;;;;12.78;80.17;102257.09;2073582;28;20072;-67
2022/09/01 03:39:06;;;;;;;1.33;0.30;;;;;;;12.78;80.21;102254.41;2079563;28;20034;-68
2022/09/01 03:40:09;;;;;;;2.15;0.43;;;;;;;12.76;79.48;102248.16;2079788;28;20180;-67
2022/09/01 03:41:11;;;;;;;4.10;0.40;;;;;;;12.74;80.26;102250.84;2071830;28;20047;-68
2022/09/01 03:42:21;;;;;;;0.88;0.35;;;;;;;12.76;80.01;102251.72;2071326;28;20847;-68
2022/09/01 03:43:26;;;;;;;0.98;0.40;;;;;;;12.75;79.94;102243.66;2078630;28;20991;-67
2022/09/01 03:44:28;;;;;;;1.48;0.47;;;;;;;12.74;80.75;102244.56;2064004;28;20823;-67
2022/09/01 03:45:37;;;;;;;2.25;0.50;;;;;;;12.73;80.67;102245.50;2071451;28;20157;-69
2022/09/01 03:46:39;;;;;;;0.93;0.28;;;;;;;12.72;80.99;102244.59;2080275;28;20074;-67
2022/09/01 03:47:42;;;;;;;1.13;0.30;;;;;;;12.72;80.62;102244.59;2071961;28;20096;-69
2022/09/01 03:48:50;;;;;;;1.88;0.38;;;;;;;12.75;80.52;102240.97;2062914;28;20145;-68
2022/09/01 03:49:53;;;;;;;1.63;0.63;;;;;;;12.74;80.41;102236.50;2065998;28;20046;-69
2022/09/01 03:51:01;;;;;;;1.67;0.52;;;;;;;12.76;80.35;102243.66;2085163;28;20049;-69
2022/09/01 03:52:07;;;;;;;0.73;0.30;;;;;;;12.75;80.50;102235.59;2088139;28;20052;-67
2022/09/01 03:53:16;;;;;;;1.27;0.40;;;;;;;12.72;80.59;102241.00;2079458;28;20089;-70
2022/09/01 03:54:22;;;;;;;3.13;0.50;;;;;;;12.73;80.12;102242.81;2072648;28;20205;-69
2022/09/01 03:55:29;;;;;;;1.40;0.40;;;;;;;12.75;80.97;102240.97;2080202;28;20784;-70
2022/09/01 03:56:32;;;;;;;3.33;0.40;;;;;;;12.75;80.64;102240.97;2079941;28;20042;-69
2022/09/01 03:57:41;;;;;;;1.52;0.50;;;;;;;12.75;81.23;102243.66;2071773;28;20049;-69
2022/09/01 03:58:45;;;;;;;2.03;0.40;;;;;;;12.75;80.71;102239.19;2072607;28;20041;-70
2022/09/01 03:59:50;;;;;;;0.75;0.40;;;;;;;12.77;81.11;102236.47;2063914;28;20050;-69
2022/09/01 04:00:59;;;;;;;1.30;0.43;;;;;;;12.77;80.27;102236.47;2072664;28;20961;-69
2022/09/01 04:02:03;;;;;;;1.38;0.50;;;;;;;12.75;81.15;102247.25;2064600;28;20125;-69
2022/09/01 04:03:11;;;;;;;0.82;0.32;;;;;;;12.75;80.41;102239.19;2065391;28;20058;-69
2022/09/01 04:04:14;;;;;;;1.40;0.50;;;;;;;12.76;81.02;102240.09;2064470;28;20047;-69
2022/09/01 04:05:23;;;;;;;0.80;0.30;;;;;;;12.80;80.48;102239.13;2064596;28;20043;-70
2022/09/01 04:06:25;;;;;;;2.92;0.52;;;;;;;12.79;80.38;102234.66;2064949;28;20047;-70
2022/09/01 04:07:27;;;;;;;2.90;0.55;;;;;;;12.82;80.86;102242.69;2072664;28;20164;-70
2022/09/01 04:08:32;;;;;;;3.45;0.40;;;;;;;12.83;81.10;102240.88;2079623;28;20132;-69
2022/09/01 04:09:35;;;;;;;1.27;0.50;;;;;;;12.80;80.75;102241.81;2080276;28;20192;-69
2022/09/01 04:10:50;;;;;;;1.00;0.50;;;;;;;12.81;80.38;102238.22;2071663;28;20046;-69
2022/09/01 04:11:56;;;;;;;1.17;0.43;;;;;;;12.80;80.52;102241.81;2076158;28;20046;-69
2022/09/01 04:13:01;;;;;;;2.60;0.40;;;;;;;12.79;80.62;102238.25;2079584;28;20499;-70
2022/09/01 04:14:05;;;;;;;1.17;0.43;;;;;;;12.78;81.08;102238.28;2079332;28;20045;-68
2022/09/01 04:15:13;;;;;;;1.40;0.40;;;;;;;12.79;80.25;102240.03;2087527;28;20988;-69
2022/09/01 04:18:08;;;;;;;0.85;0.40;;;;;;;12.80;80.46;102234.66;2083219;28;20049;-67
2022/09/01 04:19:18;;;;;;;1.63;0.40;;;;;;;12.84;80.76;102234.63;2079931;28;20145;-70
2022/09/01 04:20:22;;;;;;;;;;;;;;;12.80;80.27;102236.44;2071975;28;20046;-69
2022/09/01 04:21:25;;;;;;;1.30;0.47;;;;;;;12.79;80.44;102240.94;2064707;28;19926;-70
2022/09/01 04:22:30;;;;;;;0.95;0.43;;;;;;;12.80;80.78;102245.41;2071600;28;20050;-69
2022/09/01 04:23:35;;;;;;;1.90;0.50;;;;;;;12.80;80.39;102239.13;2070638;28;20112;-69
2022/09/01 04:24:44;;;;;;;1.23;0.40;;;;;;;12.80;80.87;102240.03;2072575;28;20050;-70
2022/09/01 04:25:49;;;;;;;1.70;0.35;;;;;;;12.80;80.42;102240.03;2078457;28;20033;-70
2022/09/01 04:26:52;;;;;;;3.40;0.40;;;;;;;12.80;81.29;102241.81;2063396;28;21031;-69
2022/09/01 04:27:54;;;;;;;1.95;0.40;;;;;;;12.79;80.99;102242.72;2064944;28;20043;-67
2022/09/01 04:28:57;;;;;;;1.30;0.40;;;;;;;12.78;81.29;102240.97;2071333;28;20038;-67
2022/09/01 04:30:00;;;;;;;2.03;0.50;;;;;;;12.79;80.79;102240.03;2071778;28;20046;-67
2022/09/01 04:31:08;;;;;;;5.13;0.50;;;;;;;12.80;80.86;102236.44;2071413;28;20062;-70
2022/09/01 04:32:11;;;;;;;1.23;0.57;;;;;;;12.80;81.51;102241.81;2071594;28;20104;-68
2022/09/01 04:33:17;;;;;;;1.38;0.50;;;;;;;12.78;81.06;102244.53;2064931;28;20050;-68
2022/09/01 04:34:21;;;;;;;0.98;0.40;;;;;;;12.77;81.16;102239.16;2063281;28;20078;-68
2022/09/01 04:35:31;;;;;;;1.83;0.50;;;;;;;12.79;81.94;102238.25;2071695;28;20034;-68
2022/09/01 04:36:33;;;;;;;;;;;;;;;12.78;81.84;102238.28;2071510;28;20046;-69
2022/09/01 04:37:35;;;;;;;2.28;0.50;;;;;;;12.76;81.58;102243.66;2071217;28;19992;-67
2022/09/01 04:38:40;;;;;;;1.02;0.35;;;;;;;12.77;81.41;102244.53;2071127;28;20797;-70
2022/09/01 04:39:48;;;;;;;1.02;0.47;;;;;;;12.76;81.23;102242.78;2071715;28;20042;-70
2022/09/01 04:40:57;;;;;;;1.42;0.50;;;;;;;12.78;81.41;102240.97;2070936;28;20046;-68
2022/09/01 04:41:58;;;;;;;2.53;0.40;;;;;;;12.85;81.62;102250.72;2063630;28;20153;-70
2022/09/01 04:43:00;;;;;;;2.38;0.35;;;;;;;12.86;81.77;102235.47;2071350;28;20784;-68
2022/09/01 04:44:05;;;;;;;1.35;0.40;;;;;;;12.87;81.40;102245.34;2072306;28;20921;-67
2022/09/01 04:45:12;;;;;;;1.60;0.80;;;;;;;12.89;81.49;102246.22;2071196;28;20136;-68
2022/09/01 04:46:19;;;;;;;1.98;0.40;;;;;;;12.94;81.13;102244.38;2071851;28;20034;-68
2022/09/01 04:47:28;;;;;;;0.90;0.45;;;;;;;12.96;81.39;102247.91;2072094;28;20053;-68
2022/09/01 04:48:33;;;;;;;2.20;0.50;;;;;;;12.96;80.68;102240.75;2079777;28;20185;-68
2022/09/01 04:49:36;;;;;;;2.28;0.50;;;;;;;12.97;80.61;102242.53;2070633;28;20756;-68
2022/09/01 04:50:39;;;;;;;1.70;0.40;;;;;;;13.01;81.03;102250.53;2064084;28;20066;-68
2022/09/01 04:52:07;;;;;;;2.13;0.50;;;;;;;13.06;80.30;102243.31;2072049;28;20050;-68
2022/09/01 04:53:10;;;;;;;2.80;0.43;;;;;;;13.10;80.42;102247.72;2070804;28;25238;-68
2022/09/01 04:54:17;;;;;;;3.15;0.60;;;;;;;13.12;80.26;102251.31;2063692;28;20920;-68
2022/09/01 04:55:19;;;;;;;1.23;0.50;;;;;;;13.17;80.86;102246.75;2071543;28;20856;-68
2022/09/01 04:56:25;;;;;;;1.90;0.50;;;;;;;13.18;80.50;102240.47;2079380;28;20034;-67
2022/09/01 04:57:59;;;;;;;2.42;0.57;;;;;;;13.21;80.05;102245.81;2060035;28;20046;-66
2022/09/01 04:59:05;;;;;;;1.05;0.60;;;;;;;13.23;80.56;102246.69;2080398;28;20077;-68
2022/09/01 05:00:21;;;;;;;1.27;0.50;;;;;;;13.23;80.15;102246.69;2071325;28;20073;-67
2022/09/01 05:01:26;;;;;;;2.60;0.50;;;;;;;13.25;80.47;102243.97;2059597;28;20186;-68
2022/09/01 05:02:30;;;;;;;1.52;0.60;;;;;;;13.25;80.30;102246.66;2066235;28;21052;-69
2022/09/01 05:03:35;;;;;;;1.77;0.50;;;;;;;13.26;80.43;102249.34;2079579;28;20100;-68
2022/09/01 05:04:57;;;;;;;1.30;0.50;;;;;;;13.27;80.32;102244.84;2079305;28;20049;-68
2022/09/01 05:06:02;;;;;;;2.42;0.40;;;;;;;13.27;79.70;102245.72;2080027;28;20077;-68
2022/09/01 05:07:07;;;;;;;3.33;0.57;;;;;;;13.26;79.88;102246.66;2086932;28;20045;-69
2022/09/01 05:08:19;;;;;;;3.47;0.52;;;;;;;13.27;79.99;102247.53;2079229;28;20063;-68